createdAt,value
2019-05-02T00:03:04.519Z,8.77
2019-05-02T00:07:59.692Z,10.53
2019-05-02T00:12:54.505Z,8.27
2019-05-02T00:17:49.158Z,9.47
2019-05-02T00:22:48.002Z,9.17
2019-05-02T00:27:40.126Z,7.50
2019-05-02T00:32:34.721Z,8.50
2019-05-02T00:37:29.305Z,9.87
2019-05-02T00:42:24.173Z,8.60
2019-05-02T00:47:26.639Z,9.87
2019-05-02T00:52:21.213Z,7.80
2019-05-02T00:57:20.026Z,8.00
2019-05-02T01:02:14.915Z,8.97
2019-05-02T01:07:11.212Z,9.07
2019-05-02T01:12:08.484Z,8.43
2019-05-02T01:17:02.406Z,8.47
2019-05-02T01:21:56.989Z,9.50
2019-05-02T01:26:53.392Z,9.83
2019-05-02T01:31:49.939Z,8.37
2019-05-02T01:37:05.635Z,9.40
2019-05-02T01:42:04.022Z,8.57
2019-05-02T01:46:58.763Z,9.57
2019-05-02T01:51:52.957Z,8.30
2019-05-02T01:56:47.530Z,8.47
2019-05-02T02:01:42.197Z,10.50
2019-05-02T02:06:38.734Z,10.77
2019-05-02T02:11:33.922Z,13.53
2019-05-02T02:16:29.460Z,10.37
2019-05-02T02:21:27.638Z,13.03
2019-05-02T02:26:23.658Z,13.77
2019-05-02T02:31:21.509Z,10.50
2019-05-02T02:36:16.087Z,11.83
2019-05-02T02:41:13.090Z,11.57
2019-05-02T02:46:06.989Z,10.90
2019-05-02T02:51:01.598Z,12.10
2019-05-02T02:56:01.654Z,10.73
2019-05-02T03:00:52.495Z,13.33
2019-05-02T03:05:47.138Z,12.10
2019-05-02T03:10:45.107Z,14.30
2019-05-02T03:15:39.812Z,11.30
2019-05-02T03:20:39.901Z,11.60
2019-05-02T03:25:49.356Z,11.67
2019-05-02T03:30:36.304Z,14.50
2019-05-02T03:35:39.607Z,14.40
2019-05-02T03:40:19.992Z,13.17
2019-05-02T03:45:15.011Z,11.13
2019-05-02T03:50:10.098Z,11.57
2019-05-02T03:55:06.786Z,12.80
2019-05-02T04:00:01.497Z,12.23
2019-05-02T04:05:00.639Z,11.53
2019-05-02T04:09:54.417Z,12.00
2019-05-02T04:14:55.489Z,13.27
2019-05-02T04:19:45.678Z,12.53
2019-05-02T04:24:41.051Z,12.17
2019-05-02T04:29:37.182Z,13.70
2019-05-02T04:34:31.823Z,14.10
2019-05-02T04:39:28.651Z,12.13
2019-05-02T04:44:29.743Z,12.67
2019-05-02T04:49:28.272Z,11.47
2019-05-02T04:54:21.815Z,11.37
2019-05-02T04:59:18.115Z,24.30
2019-05-02T05:04:08.302Z,24.77
2019-05-02T05:09:10.433Z,24.17
2019-05-02T05:14:00.981Z,18.87
2019-05-02T05:18:55.601Z,26.53
2019-05-02T05:23:59.651Z,17.13
2019-05-02T05:28:51.952Z,24.40
2019-05-02T05:33:47.899Z,14.90
2019-05-02T05:38:42.878Z,13.20
2019-05-02T05:43:38.503Z,12.27
2019-05-02T05:48:37.252Z,13.00
2019-05-02T05:53:30.191Z,13.47
2019-05-02T05:58:25.455Z,8.27
2019-05-02T06:03:20.190Z,10.03
2019-05-02T06:08:18.454Z,12.77
2019-05-02T06:13:12.907Z,11.80
2019-05-02T06:18:07.583Z,11.33
2019-05-02T06:23:02.151Z,10.43
2019-05-02T06:28:00.207Z,9.23
2019-05-02T06:32:54.921Z,13.43
2019-05-02T06:37:50.531Z,9.77
2019-05-02T06:42:46.074Z,8.57
2019-05-02T06:47:41.549Z,14.27
2019-05-02T06:52:37.518Z,10.77
2019-05-02T06:57:32.137Z,10.30
2019-05-02T07:02:28.303Z,13.27
2019-05-02T07:07:24.958Z,12.47
2019-05-02T07:12:20.488Z,12.90
2019-05-02T07:17:38.316Z,12.00
2019-05-02T07:22:33.040Z,10.97
2019-05-02T07:27:33.079Z,10.23
2019-05-02T07:32:26.701Z,12.23
2019-05-02T07:37:21.034Z,14.87
2019-05-02T07:42:15.935Z,11.63
2019-05-02T07:47:10.543Z,10.60
2019-05-02T07:52:05.329Z,13.00
2019-05-02T07:57:02.340Z,12.93
2019-05-02T08:01:56.455Z,11.50
2019-05-02T08:06:51.144Z,12.53
2019-05-02T08:11:46.083Z,17.47
2019-05-02T08:16:40.679Z,15.67
2019-05-02T08:21:35.268Z,16.27
2019-05-02T08:26:31.515Z,13.47
2019-05-02T08:31:26.101Z,12.03
2019-05-02T08:36:20.714Z,15.83
2019-05-02T08:41:19.879Z,18.73
2019-05-02T08:46:14.563Z,17.07
2019-05-02T08:51:08.501Z,12.07
2019-05-02T08:56:03.173Z,11.80
2019-05-02T09:00:57.775Z,21.43
2019-05-02T09:06:04.645Z,18.60
2019-05-02T09:10:48.870Z,18.17
2019-05-02T09:15:51.253Z,14.90
2019-05-02T09:20:54.913Z,15.83
2019-05-02T09:25:51.958Z,12.37
2019-05-02T09:30:49.120Z,15.00
2019-05-02T09:35:45.849Z,23.87
2019-05-02T09:40:47.182Z,19.43
2019-05-02T09:45:43.945Z,13.40
2019-05-02T09:50:38.607Z,17.82
2019-05-02T09:55:33.591Z,15.20
2019-05-02T10:00:46.748Z,14.53
2019-05-02T10:05:43.119Z,12.40
2019-05-02T10:10:44.258Z,16.00
2019-05-02T10:15:34.555Z,11.70
2019-05-02T10:20:34.165Z,13.80
2019-05-02T10:25:32.840Z,11.57
2019-05-02T10:30:24.822Z,30.50
2019-05-02T10:35:22.898Z,15.75
2019-05-02T10:40:17.879Z,14.55
2019-05-02T10:45:16.759Z,10.13
2019-05-02T10:50:12.491Z,12.90
2019-05-02T10:55:14.120Z,14.07
2019-05-02T11:00:23.404Z,16.50
2019-05-02T11:05:26.542Z,10.93
2019-05-02T11:10:21.832Z,10.48
2019-05-02T11:15:34.911Z,9.50
2019-05-02T11:20:31.899Z,11.28
2019-05-02T11:25:26.683Z,12.82
2019-05-02T11:30:26.388Z,9.50
2019-05-02T11:35:17.880Z,13.13
2019-05-02T11:40:15.623Z,7.75
2019-05-02T11:45:12.148Z,6.35
2019-05-02T11:50:08.760Z,8.23
2019-05-02T11:55:04.763Z,7.78
2019-05-02T12:00:04.134Z,9.38
2019-05-02T12:04:56.044Z,10.00
2019-05-02T12:09:56.692Z,8.63
2019-05-02T12:14:47.329Z,10.58
2019-05-02T12:19:42.582Z,6.50
2019-05-02T12:24:40.890Z,7.92
2019-05-02T12:29:34.298Z,7.75
2019-05-02T12:34:28.975Z,6.10
2019-05-02T12:39:23.669Z,7.33
2019-05-02T12:44:18.659Z,6.30
2019-05-02T12:49:24.397Z,8.75
2019-05-02T12:54:09.875Z,8.38
2019-05-02T12:59:05.087Z,8.23
2019-05-02T13:04:02.776Z,5.00
2019-05-02T13:08:57.770Z,10.95
2019-05-02T13:13:53.409Z,6.55
2019-05-02T13:18:57.202Z,5.22
2019-05-02T13:24:07.552Z,6.20
2019-05-02T13:28:59.269Z,4.40
2019-05-02T13:33:59.495Z,6.50
2019-05-02T13:38:54.440Z,7.95
2019-05-02T13:43:52.115Z,6.30
2019-05-02T13:48:47.304Z,16.65
2019-05-02T13:53:43.526Z,8.90
2019-05-02T13:58:38.231Z,9.37
2019-05-02T14:03:33.065Z,13.73
2019-05-02T14:08:36.709Z,14.57
2019-05-02T14:13:28.915Z,13.97
2019-05-02T14:18:29.122Z,14.20
2019-05-02T14:23:19.873Z,12.47
2019-05-02T14:28:14.556Z,10.40
2019-05-02T14:33:11.759Z,13.23
2019-05-02T14:38:13.569Z,11.47
2019-05-02T14:43:08.404Z,12.80
2019-05-02T14:48:17.899Z,9.63
2019-05-02T14:53:02.613Z,9.90
2019-05-02T14:58:02.147Z,9.60
2019-05-02T15:02:54.079Z,10.93
2019-05-02T15:07:48.786Z,10.87
2019-05-02T15:12:43.446Z,10.33
2019-05-02T15:17:38.116Z,8.47
2019-05-02T15:22:37.325Z,7.80
2019-05-02T15:27:40.093Z,6.57
2019-05-02T15:32:46.410Z,8.57
2019-05-02T15:37:41.647Z,6.60
2019-05-02T15:42:36.174Z,7.67
2019-05-02T15:47:32.026Z,5.63
2019-05-02T15:52:28.542Z,5.17
2019-05-02T15:57:24.889Z,5.37
2019-05-02T16:02:26.487Z,5.00
2019-05-02T16:07:22.367Z,7.33
2019-05-02T16:12:16.770Z,5.63
2019-05-02T16:17:12.442Z,5.87
2019-05-02T16:22:17.805Z,5.50
2019-05-02T16:27:16.410Z,5.87
2019-05-02T16:32:16.957Z,7.23
2019-05-02T16:37:16.554Z,5.37
2019-05-02T16:42:08.569Z,5.43
2019-05-02T16:47:03.725Z,4.10
2019-05-02T16:52:04.906Z,6.83
2019-05-02T16:56:58.380Z,4.73
2019-05-02T17:01:54.394Z,5.60
2019-05-02T17:06:48.253Z,5.87
2019-05-02T17:11:47.055Z,5.60
2019-05-02T17:16:42.122Z,8.47
2019-05-02T17:21:52.364Z,5.63
2019-05-02T17:26:33.184Z,7.87
2019-05-02T17:31:27.965Z,6.17
2019-05-02T17:36:28.654Z,7.77
2019-05-02T17:41:19.167Z,7.87
2019-05-02T17:46:18.349Z,6.60
2019-05-02T17:51:18.100Z,7.23
2019-05-02T17:56:20.272Z,9.10
2019-05-02T18:01:10.861Z,7.20
2019-05-02T18:06:07.498Z,7.20
2019-05-02T18:11:02.939Z,9.87
2019-05-02T18:15:57.700Z,8.80
2019-05-02T18:20:52.887Z,8.83
2019-05-02T18:25:48.011Z,8.63
2019-05-02T18:30:42.622Z,9.67
2019-05-02T18:35:41.956Z,9.93
2019-05-02T18:40:33.607Z,7.63
2019-05-02T18:45:28.828Z,6.90
2019-05-02T18:50:44.499Z,11.37
2019-05-02T18:55:32.620Z,7.13
2019-05-02T19:00:35.531Z,7.27
2019-05-02T19:05:26.521Z,7.43
2019-05-02T19:10:21.130Z,7.67
2019-05-02T19:15:16.849Z,10.53
2019-05-02T19:20:34.265Z,3.97
2019-05-02T19:25:29.041Z,5.13
2019-05-02T19:30:29.926Z,4.83
2019-05-02T19:35:24.634Z,3.07
2019-05-02T19:40:28.207Z,3.10
2019-05-02T19:45:21.811Z,3.63
2019-05-02T19:50:39.268Z,2.47
2019-05-02T19:55:29.814Z,2.57
2019-05-02T20:00:24.587Z,1.20
2019-05-02T20:05:24.080Z,3.43
2019-05-02T20:10:17.873Z,2.00
2019-05-02T20:15:17.059Z,2.20
2019-05-02T20:20:54.096Z,2.10
2019-05-02T20:25:48.784Z,1.87
2019-05-02T20:30:43.539Z,1.90
2019-05-02T20:35:38.263Z,3.60
2019-05-02T20:40:35.214Z,2.80
2019-05-02T20:45:32.129Z,2.43
2019-05-02T20:50:26.566Z,2.13
2019-05-02T20:55:21.390Z,1.70
2019-05-02T21:00:26.283Z,3.20
2019-05-02T21:05:32.126Z,1.53
2019-05-02T21:10:28.672Z,3.50
2019-05-02T21:15:23.343Z,2.70
2019-05-02T21:20:17.930Z,3.83
2019-05-02T21:25:13.142Z,3.20
2019-05-02T21:30:12.351Z,4.50
2019-05-02T21:35:08.883Z,2.13
2019-05-02T21:40:04.212Z,2.43
2019-05-02T21:44:58.803Z,3.63
2019-05-02T21:49:55.019Z,2.50
2019-05-02T21:55:03.112Z,2.27
2019-05-02T21:59:57.691Z,2.97
2019-05-02T22:04:52.888Z,3.13
2019-05-02T22:09:47.499Z,3.17
2019-05-02T22:14:42.259Z,3.73
2019-05-02T22:19:36.866Z,3.03
2019-05-02T22:24:31.538Z,4.07
2019-05-02T22:29:26.116Z,3.77
2019-05-02T22:34:22.019Z,5.67
2019-05-02T22:39:34.640Z,3.60
2019-05-02T22:44:29.361Z,4.27
2019-05-02T22:49:23.984Z,5.47
2019-05-02T22:54:27.719Z,7.50
2019-05-02T22:59:14.902Z,6.20
2019-05-02T23:04:09.470Z,8.27
2019-05-02T23:09:06.177Z,8.67
2019-05-02T23:14:01.784Z,7.20
2019-05-02T23:18:56.630Z,6.40
2019-05-02T23:23:52.355Z,7.00
2019-05-02T23:28:51.840Z,6.23
2019-05-02T23:33:58.217Z,6.07
2019-05-02T23:38:52.805Z,6.13
2019-05-02T23:43:47.482Z,6.07
2019-05-02T23:48:42.057Z,3.73
2019-05-02T23:53:36.651Z,6.40
2019-05-02T23:58:32.005Z,4.10
